sensor_id;sensor_type;location;lat;lon;timestamp;P1;durP1;ratioP1;P2;durP2;ratioP2
19877;SDS011;10101;52.204;9.910;2024-03-02T00:00:38;19.70;;;10.93;;
19877;SDS011;10101;52.204;9.910;2024-03-02T00:03:05;18.50;;;10.77;;
19877;SDS011;10101;52.204;9.910;2024-03-02T00:05:34;17.20;;;10.03;;
19877;SDS011;10101;52.204;9.910;2024-03-02T00:08:03;17.50;;;10.43;;
19877;SDS011;10101;52.204;9.910;2024-03-02T00:10:35;19.23;;;11.30;;
19877;SDS011;10101;52.204;9.910;2024-03-02T00:13:04;19.60;;;11.30;;
19877;SDS011;10101;52.204;9.910;2024-03-02T00:15:39;18.57;;;11.17;;
19877;SDS011;10101;52.204;9.910;2024-03-02T00:18:09;18.37;;;11.50;;
19877;SDS011;10101;52.204;9.910;2024-03-02T00:20:37;21.27;;;11.77;;
19877;SDS011;10101;52.204;9.910;2024-03-02T00:23:06;18.70;;;11.67;;
19877;SDS011;10101;52.204;9.910;2024-03-02T00:25:36;21.57;;;10.63;;
19877;SDS011;10101;52.204;9.910;2024-03-02T00:28:05;19.60;;;11.70;;
19877;SDS011;10101;52.204;9.910;2024-03-02T00:30:50;21.40;;;11.73;;
19877;SDS011;10101;52.204;9.910;2024-03-02T00:33:22;20.60;;;12.43;;
19877;SDS011;10101;52.204;9.910;2024-03-02T00:35:49;19.77;;;11.43;;
19877;SDS011;10101;52.204;9.910;2024-03-02T00:38:17;17.90;;;11.17;;
19877;SDS011;10101;52.204;9.910;2024-03-02T00:40:44;20.50;;;12.03;;
19877;SDS011;10101;52.204;9.910;2024-03-02T00:43:18;20.27;;;11.60;;
19877;SDS011;10101;52.204;9.910;2024-03-02T00:46:07;20.57;;;12.20;;
19877;SDS011;10101;52.204;9.910;2024-03-02T00:48:34;21.90;;;12.07;;
19877;SDS011;10101;52.204;9.910;2024-03-02T00:51:02;17.30;;;10.70;;
19877;SDS011;10101;52.204;9.910;2024-03-02T00:53:30;19.27;;;12.13;;
19877;SDS011;10101;52.204;9.910;2024-03-02T00:55:58;20.27;;;11.77;;
19877;SDS011;10101;52.204;9.910;2024-03-02T00:58:26;20.27;;;12.20;;
19877;SDS011;10101;52.204;9.910;2024-03-02T01:00:53;23.03;;;12.67;;
19877;SDS011;10101;52.204;9.910;2024-03-02T01:03:20;21.73;;;12.70;;
19877;SDS011;10101;52.204;9.910;2024-03-02T01:05:47;19.10;;;11.80;;
19877;SDS011;10101;52.204;9.910;2024-03-02T01:08:14;21.27;;;12.70;;
19877;SDS011;10101;52.204;9.910;2024-03-02T01:10:42;20.37;;;11.67;;
19877;SDS011;10101;52.204;9.910;2024-03-02T01:13:09;23.03;;;12.90;;
19877;SDS011;10101;52.204;9.910;2024-03-02T01:15:36;19.57;;;11.83;;
19877;SDS011;10101;52.204;9.910;2024-03-02T01:18:03;20.87;;;12.17;;
19877;SDS011;10101;52.204;9.910;2024-03-02T01:20:30;22.20;;;12.93;;
19877;SDS011;10101;52.204;9.910;2024-03-02T01:22:57;16.90;;;11.57;;
19877;SDS011;10101;52.204;9.910;2024-03-02T01:25:24;22.33;;;12.73;;
19877;SDS011;10101;52.204;9.910;2024-03-02T01:27:52;22.63;;;13.57;;
19877;SDS011;10101;52.204;9.910;2024-03-02T01:30:19;24.03;;;13.00;;
19877;SDS011;10101;52.204;9.910;2024-03-02T01:32:46;22.30;;;12.77;;
19877;SDS011;10101;52.204;9.910;2024-03-02T01:35:13;22.30;;;12.53;;
19877;SDS011;10101;52.204;9.910;2024-03-02T01:37:40;22.27;;;13.17;;
19877;SDS011;10101;52.204;9.910;2024-03-02T01:40:07;22.50;;;13.23;;
19877;SDS011;10101;52.204;9.910;2024-03-02T01:42:35;22.03;;;12.27;;
19877;SDS011;10101;52.204;9.910;2024-03-02T01:45:04;22.83;;;13.07;;
19877;SDS011;10101;52.204;9.910;2024-03-02T01:47:32;20.37;;;13.07;;
19877;SDS011;10101;52.204;9.910;2024-03-02T01:49:59;20.23;;;12.80;;
19877;SDS011;10101;52.204;9.910;2024-03-02T01:52:26;22.70;;;12.70;;
19877;SDS011;10101;52.204;9.910;2024-03-02T01:54:54;22.30;;;13.10;;
19877;SDS011;10101;52.204;9.910;2024-03-02T01:57:21;18.70;;;12.53;;
19877;SDS011;10101;52.204;9.910;2024-03-02T01:59:48;20.20;;;12.20;;
19877;SDS011;10101;52.204;9.910;2024-03-02T02:02:17;23.10;;;13.33;;
19877;SDS011;10101;52.204;9.910;2024-03-02T02:04:43;22.17;;;12.63;;
19877;SDS011;10101;52.204;9.910;2024-03-02T02:07:10;22.40;;;12.43;;
19877;SDS011;10101;52.204;9.910;2024-03-02T02:09:39;22.97;;;13.10;;
19877;SDS011;10101;52.204;9.910;2024-03-02T02:12:06;22.50;;;13.23;;
19877;SDS011;10101;52.204;9.910;2024-03-02T02:14:33;24.60;;;12.67;;
19877;SDS011;10101;52.204;9.910;2024-03-02T02:17:00;20.67;;;11.67;;
19877;SDS011;10101;52.204;9.910;2024-03-02T02:19:28;20.77;;;12.53;;
19877;SDS011;10101;52.204;9.910;2024-03-02T02:21:56;21.03;;;12.00;;
19877;SDS011;10101;52.204;9.910;2024-03-02T02:24:23;23.23;;;12.93;;
19877;SDS011;10101;52.204;9.910;2024-03-02T02:26:49;22.77;;;12.40;;
19877;SDS011;10101;52.204;9.910;2024-03-02T02:29:16;23.83;;;12.77;;
19877;SDS011;10101;52.204;9.910;2024-03-02T02:31:43;17.87;;;11.57;;
19877;SDS011;10101;52.204;9.910;2024-03-02T02:34:10;21.43;;;12.83;;
19877;SDS011;10101;52.204;9.910;2024-03-02T02:36:37;19.73;;;12.03;;
19877;SDS011;10101;52.204;9.910;2024-03-02T02:39:07;19.93;;;12.30;;
19877;SDS011;10101;52.204;9.910;2024-03-02T02:41:37;18.63;;;11.73;;
19877;SDS011;10101;52.204;9.910;2024-03-02T02:44:04;19.10;;;11.63;;
19877;SDS011;10101;52.204;9.910;2024-03-02T02:46:30;22.97;;;12.43;;
19877;SDS011;10101;52.204;9.910;2024-03-02T02:48:57;20.00;;;11.40;;
19877;SDS011;10101;52.204;9.910;2024-03-02T02:51:24;20.33;;;11.70;;
19877;SDS011;10101;52.204;9.910;2024-03-02T02:53:51;19.00;;;11.53;;
19877;SDS011;10101;52.204;9.910;2024-03-02T02:56:19;19.97;;;11.70;;
19877;SDS011;10101;52.204;9.910;2024-03-02T02:58:46;20.40;;;11.50;;
19877;SDS011;10101;52.204;9.910;2024-03-02T03:01:12;21.37;;;12.13;;
19877;SDS011;10101;52.204;9.910;2024-03-02T03:03:42;21.80;;;11.90;;
19877;SDS011;10101;52.204;9.910;2024-03-02T03:06:09;22.43;;;12.00;;
19877;SDS011;10101;52.204;9.910;2024-03-02T03:08:35;21.93;;;11.97;;
19877;SDS011;10101;52.204;9.910;2024-03-02T03:11:02;19.33;;;12.53;;
19877;SDS011;10101;52.204;9.910;2024-03-02T03:13:31;19.37;;;11.57;;
19877;SDS011;10101;52.204;9.910;2024-03-02T03:15:58;20.37;;;11.80;;
19877;SDS011;10101;52.204;9.910;2024-03-02T03:18:24;20.27;;;11.77;;
19877;SDS011;10101;52.204;9.910;2024-03-02T03:20:51;22.90;;;12.53;;
19877;SDS011;10101;52.204;9.910;2024-03-02T03:23:18;18.57;;;10.97;;
19877;SDS011;10101;52.204;9.910;2024-03-02T03:25:45;19.90;;;11.83;;
19877;SDS011;10101;52.204;9.910;2024-03-02T03:28:12;24.00;;;12.77;;
19877;SDS011;10101;52.204;9.910;2024-03-02T03:30:40;19.33;;;10.97;;
19877;SDS011;10101;52.204;9.910;2024-03-02T03:33:08;19.83;;;11.80;;
19877;SDS011;10101;52.204;9.910;2024-03-02T03:35:35;21.33;;;11.60;;
19877;SDS011;10101;52.204;9.910;2024-03-02T03:38:03;19.03;;;11.13;;
19877;SDS011;10101;52.204;9.910;2024-03-02T03:40:30;20.07;;;11.70;;
19877;SDS011;10101;52.204;9.910;2024-03-02T03:42:57;19.17;;;11.10;;
19877;SDS011;10101;52.204;9.910;2024-03-02T03:45:24;19.97;;;11.40;;
19877;SDS011;10101;52.204;9.910;2024-03-02T03:47:53;16.77;;;10.70;;
19877;SDS011;10101;52.204;9.910;2024-03-02T03:50:20;18.20;;;10.97;;
19877;SDS011;10101;52.204;9.910;2024-03-02T03:52:46;16.73;;;10.73;;
19877;SDS011;10101;52.204;9.910;2024-03-02T03:55:13;18.77;;;11.17;;
19877;SDS011;10101;52.204;9.910;2024-03-02T03:57:40;19.13;;;11.30;;
19877;SDS011;10101;52.204;9.910;2024-03-02T04:00:06;17.87;;;10.73;;
19877;SDS011;10101;52.204;9.910;2024-03-02T04:02:35;19.70;;;11.87;;
19877;SDS011;10101;52.204;9.910;2024-03-02T04:05:03;19.67;;;11.40;;
19877;SDS011;10101;52.204;9.910;2024-03-02T04:07:33;19.47;;;11.27;;
19877;SDS011;10101;52.204;9.910;2024-03-02T04:10:05;19.97;;;11.60;;
19877;SDS011;10101;52.204;9.910;2024-03-02T04:12:33;17.73;;;10.60;;
19877;SDS011;10101;52.204;9.910;2024-03-02T04:15:01;20.93;;;12.30;;
19877;SDS011;10101;52.204;9.910;2024-03-02T04:17:29;18.90;;;10.77;;
19877;SDS011;10101;52.204;9.910;2024-03-02T04:19:57;18.87;;;11.20;;
19877;SDS011;10101;52.204;9.910;2024-03-02T04:22:25;21.53;;;11.93;;
19877;SDS011;10101;52.204;9.910;2024-03-02T04:24:52;17.97;;;11.03;;
19877;SDS011;10101;52.204;9.910;2024-03-02T04:27:19;20.03;;;11.20;;
19877;SDS011;10101;52.204;9.910;2024-03-02T04:29:46;21.47;;;11.70;;
19877;SDS011;10101;52.204;9.910;2024-03-02T04:32:12;18.77;;;11.23;;
19877;SDS011;10101;52.204;9.910;2024-03-02T04:34:39;21.30;;;10.90;;
19877;SDS011;10101;52.204;9.910;2024-03-02T04:37:06;21.67;;;11.70;;
19877;SDS011;10101;52.204;9.910;2024-03-02T04:39:35;20.40;;;11.60;;
19877;SDS011;10101;52.204;9.910;2024-03-02T04:42:02;21.17;;;11.03;;
19877;SDS011;10101;52.204;9.910;2024-03-02T04:44:29;20.67;;;11.97;;
19877;SDS011;10101;52.204;9.910;2024-03-02T04:46:56;23.23;;;12.70;;
19877;SDS011;10101;52.204;9.910;2024-03-02T04:49:22;20.40;;;11.73;;
19877;SDS011;10101;52.204;9.910;2024-03-02T04:51:49;21.17;;;12.33;;
19877;SDS011;10101;52.204;9.910;2024-03-02T04:54:16;21.63;;;12.67;;
19877;SDS011;10101;52.204;9.910;2024-03-02T04:56:44;24.03;;;13.63;;
19877;SDS011;10101;52.204;9.910;2024-03-02T04:59:14;20.63;;;12.23;;
19877;SDS011;10101;52.204;9.910;2024-03-02T05:01:42;21.00;;;12.70;;
19877;SDS011;10101;52.204;9.910;2024-03-02T05:04:09;22.60;;;13.07;;
19877;SDS011;10101;52.204;9.910;2024-03-02T05:06:36;25.73;;;13.73;;
19877;SDS011;10101;52.204;9.910;2024-03-02T05:09:05;21.20;;;12.90;;
19877;SDS011;10101;52.204;9.910;2024-03-02T05:11:31;22.33;;;12.23;;
19877;SDS011;10101;52.204;9.910;2024-03-02T05:14:20;22.77;;;13.03;;
19877;SDS011;10101;52.204;9.910;2024-03-02T05:16:46;21.90;;;12.67;;
19877;SDS011;10101;52.204;9.910;2024-03-02T05:19:13;24.07;;;12.90;;
19877;SDS011;10101;52.204;9.910;2024-03-02T05:21:40;20.83;;;12.47;;
19877;SDS011;10101;52.204;9.910;2024-03-02T05:24:07;23.50;;;12.20;;
19877;SDS011;10101;52.204;9.910;2024-03-02T05:26:34;23.63;;;13.10;;
19877;SDS011;10101;52.204;9.910;2024-03-02T05:29:00;23.23;;;13.13;;
19877;SDS011;10101;52.204;9.910;2024-03-02T05:31:29;23.83;;;13.80;;
19877;SDS011;10101;52.204;9.910;2024-03-02T05:33:56;21.90;;;12.43;;
19877;SDS011;10101;52.204;9.910;2024-03-02T05:36:23;24.93;;;12.53;;
19877;SDS011;10101;52.204;9.910;2024-03-02T05:38:50;23.63;;;13.43;;
19877;SDS011;10101;52.204;9.910;2024-03-02T05:41:16;19.33;;;12.27;;
19877;SDS011;10101;52.204;9.910;2024-03-02T05:43:43;23.63;;;12.33;;
19877;SDS011;10101;52.204;9.910;2024-03-02T05:46:10;22.93;;;13.10;;
19877;SDS011;10101;52.204;9.910;2024-03-02T05:48:38;20.80;;;12.30;;
19877;SDS011;10101;52.204;9.910;2024-03-02T05:51:05;22.13;;;12.70;;
19877;SDS011;10101;52.204;9.910;2024-03-02T05:53:31;21.77;;;12.43;;
19877;SDS011;10101;52.204;9.910;2024-03-02T05:55:58;21.13;;;12.13;;
19877;SDS011;10101;52.204;9.910;2024-03-02T05:58:25;23.20;;;12.23;;
19877;SDS011;10101;52.204;9.910;2024-03-02T06:01:03;21.57;;;12.70;;
19877;SDS011;10101;52.204;9.910;2024-03-02T06:03:30;21.30;;;11.80;;
19877;SDS011;10101;52.204;9.910;2024-03-02T06:05:59;19.10;;;11.17;;
19877;SDS011;10101;52.204;9.910;2024-03-02T06:08:25;22.07;;;12.00;;
19877;SDS011;10101;52.204;9.910;2024-03-02T06:10:52;23.63;;;13.37;;
19877;SDS011;10101;52.204;9.910;2024-03-02T06:13:19;20.27;;;11.97;;
19877;SDS011;10101;52.204;9.910;2024-03-02T06:15:45;19.43;;;11.53;;
19877;SDS011;10101;52.204;9.910;2024-03-02T06:18:12;22.53;;;12.47;;
19877;SDS011;10101;52.204;9.910;2024-03-02T06:20:39;21.83;;;12.27;;
19877;SDS011;10101;52.204;9.910;2024-03-02T06:23:07;21.10;;;11.97;;
19877;SDS011;10101;52.204;9.910;2024-03-02T06:25:34;18.23;;;11.13;;
19877;SDS011;10101;52.204;9.910;2024-03-02T06:28:00;21.33;;;12.30;;
19877;SDS011;10101;52.204;9.910;2024-03-02T06:30:27;22.00;;;12.43;;
19877;SDS011;10101;52.204;9.910;2024-03-02T06:32:54;23.83;;;13.50;;
19877;SDS011;10101;52.204;9.910;2024-03-02T06:35:21;22.30;;;12.03;;
19877;SDS011;10101;52.204;9.910;2024-03-02T06:37:47;24.40;;;14.27;;
19877;SDS011;10101;52.204;9.910;2024-03-02T06:40:16;23.07;;;12.97;;
19877;SDS011;10101;52.204;9.910;2024-03-02T06:42:43;23.07;;;13.43;;
19877;SDS011;10101;52.204;9.910;2024-03-02T06:45:09;25.07;;;13.53;;
19877;SDS011;10101;52.204;9.910;2024-03-02T06:47:36;25.10;;;13.27;;
19877;SDS011;10101;52.204;9.910;2024-03-02T06:50:03;24.13;;;13.80;;
19877;SDS011;10101;52.204;9.910;2024-03-02T06:52:32;19.27;;;11.70;;
19877;SDS011;10101;52.204;9.910;2024-03-02T06:54:58;24.43;;;12.80;;
19877;SDS011;10101;52.204;9.910;2024-03-02T06:57:26;24.23;;;13.40;;
19877;SDS011;10101;52.204;9.910;2024-03-02T06:59:53;20.43;;;12.20;;
19877;SDS011;10101;52.204;9.910;2024-03-02T07:02:23;24.63;;;13.70;;
19877;SDS011;10101;52.204;9.910;2024-03-02T07:04:51;22.67;;;13.23;;
19877;SDS011;10101;52.204;9.910;2024-03-02T07:07:18;22.33;;;12.93;;
19877;SDS011;10101;52.204;9.910;2024-03-02T07:09:45;21.33;;;12.03;;
19877;SDS011;10101;52.204;9.910;2024-03-02T07:12:12;20.03;;;11.73;;
19877;SDS011;10101;52.204;9.910;2024-03-02T07:14:40;20.37;;;12.87;;
19877;SDS011;10101;52.204;9.910;2024-03-02T07:17:25;20.97;;;11.97;;
19877;SDS011;10101;52.204;9.910;2024-03-02T07:19:52;19.33;;;12.07;;
19877;SDS011;10101;52.204;9.910;2024-03-02T07:22:18;22.03;;;12.80;;
19877;SDS011;10101;52.204;9.910;2024-03-02T07:24:45;19.77;;;12.50;;
19877;SDS011;10101;52.204;9.910;2024-03-02T07:27:12;21.33;;;12.93;;
19877;SDS011;10101;52.204;9.910;2024-03-02T07:29:41;25.70;;;12.93;;
19877;SDS011;10101;52.204;9.910;2024-03-02T07:32:08;22.80;;;12.47;;
19877;SDS011;10101;52.204;9.910;2024-03-02T07:34:36;22.00;;;12.53;;
19877;SDS011;10101;52.204;9.910;2024-03-02T07:37:03;20.60;;;12.33;;
19877;SDS011;10101;52.204;9.910;2024-03-02T07:39:30;21.40;;;12.13;;
19877;SDS011;10101;52.204;9.910;2024-03-02T07:41:57;21.70;;;13.00;;
19877;SDS011;10101;52.204;9.910;2024-03-02T07:44:25;21.87;;;12.63;;
19877;SDS011;10101;52.204;9.910;2024-03-02T07:46:53;21.83;;;12.13;;
19877;SDS011;10101;52.204;9.910;2024-03-02T07:49:20;22.67;;;13.07;;
19877;SDS011;10101;52.204;9.910;2024-03-02T07:51:47;18.73;;;11.50;;
19877;SDS011;10101;52.204;9.910;2024-03-02T07:54:13;20.63;;;12.47;;
19877;SDS011;10101;52.204;9.910;2024-03-02T07:56:40;18.83;;;11.70;;
19877;SDS011;10101;52.204;9.910;2024-03-02T07:59:07;21.00;;;11.47;;
19877;SDS011;10101;52.204;9.910;2024-03-02T08:01:34;20.80;;;11.93;;
19877;SDS011;10101;52.204;9.910;2024-03-02T08:04:02;19.53;;;12.20;;
19877;SDS011;10101;52.204;9.910;2024-03-02T08:06:29;19.00;;;11.63;;
19877;SDS011;10101;52.204;9.910;2024-03-02T08:08:57;22.70;;;12.63;;
19877;SDS011;10101;52.204;9.910;2024-03-02T08:11:24;19.23;;;10.60;;
19877;SDS011;10101;52.204;9.910;2024-03-02T08:13:52;19.97;;;12.00;;
19877;SDS011;10101;52.204;9.910;2024-03-02T08:16:20;20.53;;;11.43;;
19877;SDS011;10101;52.204;9.910;2024-03-02T08:18:47;19.67;;;11.80;;
19877;SDS011;10101;52.204;9.910;2024-03-02T08:21:15;19.60;;;11.13;;
19877;SDS011;10101;52.204;9.910;2024-03-02T08:23:42;20.30;;;11.47;;
19877;SDS011;10101;52.204;9.910;2024-03-02T08:26:09;20.63;;;11.50;;
19877;SDS011;10101;52.204;9.910;2024-03-02T08:28:37;18.70;;;11.23;;
19877;SDS011;10101;52.204;9.910;2024-03-02T08:31:05;22.97;;;12.07;;
19877;SDS011;10101;52.204;9.910;2024-03-02T08:33:32;20.90;;;11.83;;
19877;SDS011;10101;52.204;9.910;2024-03-02T08:35:59;18.83;;;11.27;;
19877;SDS011;10101;52.204;9.910;2024-03-02T08:38:27;21.73;;;12.03;;
19877;SDS011;10101;52.204;9.910;2024-03-02T08:40:54;19.50;;;11.20;;
19877;SDS011;10101;52.204;9.910;2024-03-02T08:43:21;21.33;;;11.63;;
19877;SDS011;10101;52.204;9.910;2024-03-02T08:45:48;17.10;;;10.93;;
19877;SDS011;10101;52.204;9.910;2024-03-02T08:48:16;19.20;;;11.23;;
19877;SDS011;10101;52.204;9.910;2024-03-02T08:50:42;19.50;;;11.90;;
19877;SDS011;10101;52.204;9.910;2024-03-02T08:53:09;19.87;;;11.90;;
19877;SDS011;10101;52.204;9.910;2024-03-02T08:55:37;20.13;;;11.53;;
19877;SDS011;10101;52.204;9.910;2024-03-02T08:58:04;19.33;;;11.13;;
19877;SDS011;10101;52.204;9.910;2024-03-02T09:00:31;22.63;;;12.07;;
19877;SDS011;10101;52.204;9.910;2024-03-02T09:02:57;16.70;;;10.83;;
19877;SDS011;10101;52.204;9.910;2024-03-02T09:05:24;19.87;;;10.77;;
19877;SDS011;10101;52.204;9.910;2024-03-02T09:07:51;16.90;;;10.47;;
19877;SDS011;10101;52.204;9.910;2024-03-02T09:10:18;15.50;;;10.00;;
19877;SDS011;10101;52.204;9.910;2024-03-02T09:12:46;18.37;;;10.50;;
19877;SDS011;10101;52.204;9.910;2024-03-02T09:15:13;18.57;;;11.17;;
19877;SDS011;10101;52.204;9.910;2024-03-02T09:17:39;16.03;;;10.17;;
19877;SDS011;10101;52.204;9.910;2024-03-02T09:20:06;18.50;;;10.13;;
19877;SDS011;10101;52.204;9.910;2024-03-02T09:22:34;13.77;;;8.63;;
19877;SDS011;10101;52.204;9.910;2024-03-02T09:25:00;14.47;;;9.37;;
19877;SDS011;10101;52.204;9.910;2024-03-02T09:27:27;14.80;;;9.37;;
19877;SDS011;10101;52.204;9.910;2024-03-02T09:29:55;16.30;;;9.23;;
19877;SDS011;10101;52.204;9.910;2024-03-02T09:32:22;15.40;;;9.17;;
19877;SDS011;10101;52.204;9.910;2024-03-02T09:34:49;15.10;;;9.10;;
19877;SDS011;10101;52.204;9.910;2024-03-02T09:37:17;15.23;;;9.13;;
19877;SDS011;10101;52.204;9.910;2024-03-02T09:39:44;15.37;;;8.60;;
19877;SDS011;10101;52.204;9.910;2024-03-02T09:42:11;13.00;;;8.17;;
19877;SDS011;10101;52.204;9.910;2024-03-02T09:44:39;12.63;;;8.17;;
19877;SDS011;10101;52.204;9.910;2024-03-02T09:47:07;12.70;;;7.73;;
19877;SDS011;10101;52.204;9.910;2024-03-02T09:49:34;13.97;;;8.17;;
19877;SDS011;10101;52.204;9.910;2024-03-02T09:52:01;12.80;;;8.10;;
19877;SDS011;10101;52.204;9.910;2024-03-02T09:54:30;13.17;;;8.07;;
19877;SDS011;10101;52.204;9.910;2024-03-02T09:56:57;13.33;;;8.17;;
19877;SDS011;10101;52.204;9.910;2024-03-02T09:59:26;13.43;;;8.30;;
19877;SDS011;10101;52.204;9.910;2024-03-02T10:01:57;13.70;;;8.37;;
19877;SDS011;10101;52.204;9.910;2024-03-02T10:04:26;14.27;;;8.10;;
19877;SDS011;10101;52.204;9.910;2024-03-02T10:07:09;11.50;;;7.37;;
19877;SDS011;10101;52.204;9.910;2024-03-02T10:09:37;12.27;;;7.80;;
19877;SDS011;10101;52.204;9.910;2024-03-02T10:12:04;13.63;;;8.47;;
19877;SDS011;10101;52.204;9.910;2024-03-02T10:14:32;13.10;;;8.43;;
19877;SDS011;10101;52.204;9.910;2024-03-02T10:17:01;13.10;;;8.00;;
19877;SDS011;10101;52.204;9.910;2024-03-02T10:19:30;12.40;;;8.43;;
19877;SDS011;10101;52.204;9.910;2024-03-02T10:21:58;13.60;;;8.30;;
19877;SDS011;10101;52.204;9.910;2024-03-02T10:24:25;13.77;;;8.73;;
19877;SDS011;10101;52.204;9.910;2024-03-02T10:26:52;13.73;;;8.17;;
19877;SDS011;10101;52.204;9.910;2024-03-02T10:29:19;12.80;;;8.30;;
19877;SDS011;10101;52.204;9.910;2024-03-02T10:31:46;12.80;;;7.73;;
19877;SDS011;10101;52.204;9.910;2024-03-02T10:34:13;12.00;;;7.80;;
19877;SDS011;10101;52.204;9.910;2024-03-02T10:36:42;14.73;;;8.23;;
19877;SDS011;10101;52.204;9.910;2024-03-02T10:39:10;12.37;;;7.77;;
19877;SDS011;10101;52.204;9.910;2024-03-02T10:41:40;12.93;;;8.30;;
19877;SDS011;10101;52.204;9.910;2024-03-02T10:44:07;11.37;;;7.73;;
19877;SDS011;10101;52.204;9.910;2024-03-02T10:46:36;11.73;;;7.10;;
19877;SDS011;10101;52.204;9.910;2024-03-02T10:49:04;11.67;;;7.13;;
19877;SDS011;10101;52.204;9.910;2024-03-02T10:51:32;13.67;;;7.97;;
19877;SDS011;10101;52.204;9.910;2024-03-02T10:54:02;12.17;;;7.20;;
19877;SDS011;10101;52.204;9.910;2024-03-02T10:56:30;10.57;;;6.47;;
19877;SDS011;10101;52.204;9.910;2024-03-02T10:59:01;13.10;;;8.10;;
19877;SDS011;10101;52.204;9.910;2024-03-02T11:01:30;13.93;;;7.80;;
19877;SDS011;10101;52.204;9.910;2024-03-02T11:03:59;15.00;;;7.87;;
19877;SDS011;10101;52.204;9.910;2024-03-02T11:06:28;16.57;;;7.83;;
19877;SDS011;10101;52.204;9.910;2024-03-02T11:08:58;12.13;;;7.40;;
19877;SDS011;10101;52.204;9.910;2024-03-02T11:11:32;10.97;;;6.97;;
19877;SDS011;10101;52.204;9.910;2024-03-02T11:14:04;12.70;;;7.17;;
19877;SDS011;10101;52.204;9.910;2024-03-02T11:16:38;10.00;;;6.90;;
19877;SDS011;10101;52.204;9.910;2024-03-02T11:19:06;10.83;;;6.80;;
19877;SDS011;10101;52.204;9.910;2024-03-02T11:21:36;10.47;;;6.90;;
19877;SDS011;10101;52.204;9.910;2024-03-02T11:27:00;10.00;;;6.43;;
19877;SDS011;10101;52.204;9.910;2024-03-02T11:29:42;10.03;;;6.27;;
19877;SDS011;10101;52.204;9.910;2024-03-02T11:32:13;9.60;;;6.77;;
19877;SDS011;10101;52.204;9.910;2024-03-02T11:34:42;10.07;;;6.67;;
19877;SDS011;10101;52.204;9.910;2024-03-02T11:37:11;11.27;;;6.43;;
19877;SDS011;10101;52.204;9.910;2024-03-02T11:39:39;9.83;;;5.47;;
19877;SDS011;10101;52.204;9.910;2024-03-02T11:42:08;10.00;;;5.97;;
19877;SDS011;10101;52.204;9.910;2024-03-02T11:44:35;10.17;;;5.33;;
19877;SDS011;10101;52.204;9.910;2024-03-02T11:47:05;8.67;;;5.40;;
19877;SDS011;10101;52.204;9.910;2024-03-02T11:49:38;9.43;;;5.27;;
19877;SDS011;10101;52.204;9.910;2024-03-02T11:52:07;7.43;;;5.30;;
19877;SDS011;10101;52.204;9.910;2024-03-02T11:54:36;10.17;;;5.70;;
19877;SDS011;10101;52.204;9.910;2024-03-02T11:57:05;8.57;;;5.33;;
19877;SDS011;10101;52.204;9.910;2024-03-02T11:59:33;7.07;;;5.07;;
19877;SDS011;10101;52.204;9.910;2024-03-02T12:02:01;8.73;;;5.43;;
19877;SDS011;10101;52.204;9.910;2024-03-02T12:04:28;7.00;;;4.87;;
19877;SDS011;10101;52.204;9.910;2024-03-02T12:06:56;7.70;;;5.50;;
19877;SDS011;10101;52.204;9.910;2024-03-02T12:09:25;8.37;;;5.17;;
19877;SDS011;10101;52.204;9.910;2024-03-02T12:12:02;8.03;;;4.80;;
19877;SDS011;10101;52.204;9.910;2024-03-02T12:14:32;9.17;;;5.47;;
19877;SDS011;10101;52.204;9.910;2024-03-02T12:17:00;9.50;;;5.27;;
19877;SDS011;10101;52.204;9.910;2024-03-02T12:19:27;8.70;;;5.87;;
19877;SDS011;10101;52.204;9.910;2024-03-02T12:21:55;12.57;;;6.27;;
19877;SDS011;10101;52.204;9.910;2024-03-02T12:24:21;9.93;;;5.40;;
19877;SDS011;10101;52.204;9.910;2024-03-02T12:26:49;8.90;;;5.80;;
19877;SDS011;10101;52.204;9.910;2024-03-02T12:29:16;8.07;;;5.43;;
19877;SDS011;10101;52.204;9.910;2024-03-02T12:31:46;6.90;;;4.93;;
19877;SDS011;10101;52.204;9.910;2024-03-02T12:34:15;8.83;;;4.80;;
19877;SDS011;10101;52.204;9.910;2024-03-02T12:36:43;6.87;;;4.33;;
19877;SDS011;10101;52.204;9.910;2024-03-02T12:39:12;7.17;;;4.90;;
19877;SDS011;10101;52.204;9.910;2024-03-02T12:41:39;8.23;;;4.80;;
19877;SDS011;10101;52.204;9.910;2024-03-02T12:44:07;7.43;;;5.20;;
19877;SDS011;10101;52.204;9.910;2024-03-02T12:46:34;8.37;;;5.30;;
19877;SDS011;10101;52.204;9.910;2024-03-02T12:49:07;7.93;;;5.20;;
19877;SDS011;10101;52.204;9.910;2024-03-02T12:51:35;7.47;;;4.83;;
19877;SDS011;10101;52.204;9.910;2024-03-02T12:54:05;7.57;;;4.63;;
19877;SDS011;10101;52.204;9.910;2024-03-02T12:56:33;7.73;;;4.60;;
19877;SDS011;10101;52.204;9.910;2024-03-02T12:59:00;10.47;;;5.03;;
19877;SDS011;10101;52.204;9.910;2024-03-02T13:01:27;7.03;;;4.17;;
19877;SDS011;10101;52.204;9.910;2024-03-02T13:03:53;5.53;;;3.70;;
19877;SDS011;10101;52.204;9.910;2024-03-02T13:06:23;6.27;;;4.20;;
19877;SDS011;10101;52.204;9.910;2024-03-02T13:08:52;6.60;;;3.77;;
19877;SDS011;10101;52.204;9.910;2024-03-02T13:11:20;7.57;;;3.77;;
19877;SDS011;10101;52.204;9.910;2024-03-02T13:13:48;6.17;;;3.83;;
19877;SDS011;10101;52.204;9.910;2024-03-02T13:16:15;6.27;;;3.80;;
19877;SDS011;10101;52.204;9.910;2024-03-02T13:18:44;5.07;;;3.63;;
19877;SDS011;10101;52.204;9.910;2024-03-02T13:21:11;6.17;;;3.70;;
19877;SDS011;10101;52.204;9.910;2024-03-02T13:23:39;9.43;;;3.60;;
19877;SDS011;10101;52.204;9.910;2024-03-02T13:26:06;5.90;;;3.20;;
19877;SDS011;10101;52.204;9.910;2024-03-02T13:28:35;6.57;;;3.47;;
19877;SDS011;10101;52.204;9.910;2024-03-02T13:31:02;5.07;;;2.90;;
19877;SDS011;10101;52.204;9.910;2024-03-02T13:33:29;5.63;;;3.27;;
19877;SDS011;10101;52.204;9.910;2024-03-02T13:35:57;7.33;;;3.20;;
19877;SDS011;10101;52.204;9.910;2024-03-02T13:38:24;4.47;;;3.20;;
19877;SDS011;10101;52.204;9.910;2024-03-02T13:40:53;4.07;;;2.70;;
19877;SDS011;10101;52.204;9.910;2024-03-02T13:43:20;4.83;;;2.57;;
19877;SDS011;10101;52.204;9.910;2024-03-02T13:45:47;4.70;;;2.60;;
19877;SDS011;10101;52.204;9.910;2024-03-02T13:48:15;3.63;;;2.53;;
19877;SDS011;10101;52.204;9.910;2024-03-02T13:50:42;4.27;;;2.57;;
19877;SDS011;10101;52.204;9.910;2024-03-02T13:53:09;4.23;;;2.30;;
19877;SDS011;10101;52.204;9.910;2024-03-02T13:55:37;3.53;;;2.53;;
19877;SDS011;10101;52.204;9.910;2024-03-02T13:58:05;4.90;;;3.27;;
19877;SDS011;10101;52.204;9.910;2024-03-02T14:00:32;5.00;;;3.20;;
19877;SDS011;10101;52.204;9.910;2024-03-02T14:02:59;4.43;;;3.13;;
19877;SDS011;10101;52.204;9.910;2024-03-02T14:05:26;5.50;;;3.43;;
19877;SDS011;10101;52.204;9.910;2024-03-02T14:07:53;7.80;;;4.27;;
19877;SDS011;10101;52.204;9.910;2024-03-02T14:10:19;4.90;;;3.43;;
19877;SDS011;10101;52.204;9.910;2024-03-02T14:12:48;5.10;;;3.57;;
19877;SDS011;10101;52.204;9.910;2024-03-02T14:15:16;5.03;;;3.43;;
19877;SDS011;10101;52.204;9.910;2024-03-02T14:17:42;6.60;;;3.70;;
19877;SDS011;10101;52.204;9.910;2024-03-02T14:20:09;4.60;;;3.20;;
19877;SDS011;10101;52.204;9.910;2024-03-02T14:22:38;6.13;;;3.90;;
19877;SDS011;10101;52.204;9.910;2024-03-02T14:25:05;4.43;;;3.17;;
19877;SDS011;10101;52.204;9.910;2024-03-02T14:27:32;7.00;;;3.60;;
19877;SDS011;10101;52.204;9.910;2024-03-02T14:30:00;7.53;;;4.10;;
19877;SDS011;10101;52.204;9.910;2024-03-02T14:32:28;7.77;;;3.93;;
19877;SDS011;10101;52.204;9.910;2024-03-02T14:34:55;5.27;;;3.50;;